Time;durP1;ratioP1;P1;durP2;ratioP2;P2;SDS_P1;SDS_P2;PMS_P1;PMS_P2;Temp;Humidity;BMP_temperature;BMP_pressure;BME280_temperature;BME280_humidity;BME280_pressure;Samples;Min_cycle;Max_cycle;Signal;HPM_P1;HPM_P2
2019/04/02 00:00:56;;;;;;;30.7;23.1;;;;;;;12.97;49.76953;958.8788;;;;
2019/04/02 00:03:21;;;;;;;30.2;23.1;;;;;;;12.93;50.03711;958.873;;;;
2019/04/02 00:05:46;;;;;;;29.9;24;;;;;;;12.88;50.27832;958.8738;;;;
2019/04/02 00:08:11;;;;;;;29.4;23.2;;;;;;;12.88;50.3252;958.8962;;;;
2019/04/02 00:10:36;;;;;;;31;25.1;;;;;;;12.77;51.30273;958.9122;;;;
2019/04/02 00:13:01;;;;;;;32.4;24.5;;;;;;;12.81;51.50781;958.8828;;;;
2019/04/02 00:15:26;;;;;;;33.2;25.7;;;;;;;12.7;52.22559;958.8154;;;;
2019/04/02 00:17:52;;;;;;;31.9;24.2;;;;;;;12.68;51.99902;958.8198;;;;
2019/04/02 00:20:17;;;;;;;29.9;23.6;;;;;;;12.66;51.62012;958.7795;;;;
2019/04/02 00:22:42;;;;;;;30.8;23.9;;;;;;;12.64;51.5;958.7316;;;;
2019/04/02 00:25:07;;;;;;;29.5;22.8;;;;;;;12.65;51.13477;958.7133;;;;
2019/04/02 00:27:32;;;;;;;28.1;22.7;;;;;;;12.66;50.13477;958.7156;;;;
2019/04/02 00:29:57;;;;;;;29.9;21.5;;;;;;;12.63;49.7666;958.6716;;;;
2019/04/02 00:32:22;;;;;;;26.4;20.8;;;;;;;12.68;49.53711;958.6461;;;;
2019/04/02 00:34:47;;;;;;;29;21.7;;;;;;;12.68;49.90234;958.6553;;;;
2019/04/02 00:37:12;;;;;;;32.2;22.8;;;;;;;12.64;50.54492;958.6364;;;;
2019/04/02 00:39:37;;;;;;;30.4;22.2;;;;;;;12.64;50.66406;958.7056;;;;
2019/04/02 00:42:02;;;;;;;29.8;23.3;;;;;;;12.52;51.07227;958.65;;;;
2019/04/02 00:44:27;;;;;;;26.6;22.7;;;;;;;12.44;51.11035;958.6656;;;;
2019/04/02 00:46:52;;;;;;;30.5;23.3;;;;;;;12.26;51.69043;958.6202;;;;
2019/04/02 00:49:18;;;;;;;31.4;22.8;;;;;;;12.27;52.01953;958.6057;;;;
2019/04/02 00:51:43;;;;;;;29.1;23;;;;;;;12.31;52.75488;958.5764;;;;
2019/04/02 00:54:08;;;;;;;33;24.6;;;;;;;12.32;53.36816;958.5786;;;;
2019/04/02 00:56:33;;;;;;;30.6;24.2;;;;;;;12.29;53.45898;958.553;;;;
2019/04/02 00:58:58;;;;;;;30.5;23.2;;;;;;;12.3;53.55273;958.5961;;;;
2019/04/02 01:01:23;;;;;;;32.8;25.3;;;;;;;12.15;53.94727;958.5709;;;;
2019/04/02 01:03:49;;;;;;;33.3;23.8;;;;;;;12.13;53.86133;958.5528;;;;
2019/04/02 01:06:14;;;;;;;31.7;24.4;;;;;;;11.98;54.14844;958.5862;;;;
2019/04/02 01:08:39;;;;;;;34.1;24.8;;;;;;;11.79;54.86621;958.452;;;;
2019/04/02 01:11:04;;;;;;;31.6;23.7;;;;;;;11.82;54.58887;958.4579;;;;
2019/04/02 01:13:29;;;;;;;33.5;23.7;;;;;;;11.84;54.30762;958.4774;;;;
2019/04/02 01:15:54;;;;;;;36;24.1;;;;;;;11.91;54.05762;958.4634;;;;
2019/04/02 01:18:19;;;;;;;37.4;23.6;;;;;;;11.97;54.01855;958.4481;;;;
2019/04/02 01:20:44;;;;;;;30;23.5;;;;;;;11.98;54.23242;958.4285;;;;
2019/04/02 01:23:09;;;;;;;33.5;24.1;;;;;;;12;53.84668;958.4035;;;;
2019/04/02 01:25:34;;;;;;;32.2;23.9;;;;;;;11.94;53.74316;958.3937;;;;
2019/04/02 01:28:00;;;;;;;33.8;24.2;;;;;;;11.93;53.7666;958.4084;;;;
2019/04/02 01:30:25;;;;;;;34.3;23.8;;;;;;;11.93;53.61328;958.4177;;;;
2019/04/02 01:32:50;;;;;;;34.7;23.8;;;;;;;11.88;53.71387;958.3739;;;;
2019/04/02 01:35:15;;;;;;;31.8;23.5;;;;;;;11.7;54.51465;958.3853;;;;
2019/04/02 01:37:40;;;;;;;33.9;24.3;;;;;;;11.59;55.14648;958.3619;;;;
2019/04/02 01:40:06;;;;;;;31.3;24.1;;;;;;;11.58;55.2041;958.3984;;;;
2019/04/02 01:42:31;;;;;;;30.3;23;;;;;;;11.66;54.81445;958.3102;;;;
2019/04/02 01:44:56;;;;;;;30.3;23.7;;;;;;;11.65;55.33008;958.3036;;;;
2019/04/02 01:47:21;;;;;;;31.1;23.9;;;;;;;11.56;55.47168;958.2799;;;;
2019/04/02 01:49:46;;;;;;;32.9;24.9;;;;;;;11.45;55.78613;958.31;;;;
2019/04/02 01:52:11;;;;;;;31.5;24;;;;;;;11.42;55.55859;958.2076;;;;
2019/04/02 01:54:36;;;;;;;39.4;24.7;;;;;;;11.38;55.50781;958.1923;;;;
2019/04/02 01:57:01;;;;;;;31.6;23.7;;;;;;;11.46;55.02441;958.134;;;;
2019/04/02 01:59:27;;;;;;;28.7;22.6;;;;;;;11.52;54.63184;958.1934;;;;
2019/04/02 02:01:52;;;;;;;28.2;22.7;;;;;;;11.55;54.44727;958.1786;;;;
2019/04/02 02:04:17;;;;;;;30.8;22.9;;;;;;;11.53;54.70215;958.1436;;;;
2019/04/02 02:06:42;;;;;;;35.2;23.7;;;;;;;11.41;54.9707;958.1606;;;;
2019/04/02 02:09:07;;;;;;;30.6;23.8;;;;;;;11.29;55.01367;958.1702;;;;
2019/04/02 02:11:32;;;;;;;34.3;24.2;;;;;;;11.06;55.72461;958.0334;;;;
2019/04/02 02:13:58;;;;;;;28;23.4;;;;;;;11.09;55.45801;958.0891;;;;
2019/04/02 02:16:23;;;;;;;31;23.1;;;;;;;11.23;55.0166;958.0991;;;;
2019/04/02 02:18:48;;;;;;;32.4;23.7;;;;;;;11.26;55.22168;958.0751;;;;
2019/04/02 02:21:14;;;;;;;32.4;23.9;;;;;;;11.01;55.50781;958.06;;;;
2019/04/02 02:23:39;;;;;;;34.3;23.8;;;;;;;10.92;55.88184;958.0856;;;;
2019/04/02 02:26:04;;;;;;;31.4;23.1;;;;;;;11.03;55.46191;958.0144;;;;
2019/04/02 02:28:29;;;;;;;31.5;23.3;;;;;;;11.07;55.44336;958.0892;;;;
2019/04/02 02:30:54;;;;;;;31.7;23.5;;;;;;;11.03;55.55566;958.0831;;;;
2019/04/02 02:33:19;;;;;;;30.7;23.5;;;;;;;11.04;55.4043;958.0856;;;;
2019/04/02 02:35:44;;;;;;;31.7;23.2;;;;;;;11.06;55.32422;958.1169;;;;
2019/04/02 02:38:09;;;;;;;30.2;23.3;;;;;;;11.01;55.3418;958.0912;;;;
2019/04/02 02:40:34;;;;;;;32.5;23.6;;;;;;;10.95;55.31055;958.0839;;;;
2019/04/02 02:42:59;;;;;;;30;23;;;;;;;10.91;54.91895;958.0742;;;;
2019/04/02 02:45:25;;;;;;;29;22.5;;;;;;;10.88;54.99707;958.0366;;;;
2019/04/02 02:47:50;;;;;;;29.6;23.5;;;;;;;10.87;55.05469;958.0695;;;;
2019/04/02 02:50:15;;;;;;;33.3;23.2;;;;;;;10.76;55.34473;958.111;;;;
2019/04/02 02:52:40;;;;;;;34;24.4;;;;;;;10.62;55.84375;958.0184;;;;
2019/04/02 02:55:05;;;;;;;30.8;23.1;;;;;;;10.54;55.8916;957.9853;;;;
2019/04/02 02:57:30;;;;;;;30.1;23.3;;;;;;;10.57;55.34473;957.9462;;;;
2019/04/02 02:59:55;;;;;;;30.5;24.2;;;;;;;10.66;55.21582;957.9205;;;;
2019/04/02 03:02:21;;;;;;;29.5;22.4;;;;;;;10.66;55.16797;957.9295;;;;
2019/04/02 03:04:46;;;;;;;28.9;22.3;;;;;;;10.68;55.26465;957.8306;;;;
2019/04/02 03:07:11;;;;;;;27.3;22;;;;;;;10.67;55.2627;957.7798;;;;
2019/04/02 03:09:36;;;;;;;32.4;22.4;;;;;;;10.66;55.05176;957.6992;;;;
2019/04/02 03:12:01;;;;;;;31.1;23.6;;;;;;;10.66;55.00391;957.7043;;;;
2019/04/02 03:14:26;;;;;;;30.8;23.4;;;;;;;10.55;55.23535;957.7458;;;;
2019/04/02 03:16:51;;;;;;;33.3;24;;;;;;;10.47;55.35449;957.7778;;;;
2019/04/02 03:19:16;;;;;;;29.6;22.5;;;;;;;10.52;55.24512;957.7761;;;;
2019/04/02 03:21:42;;;;;;;35.2;24.3;;;;;;;10.48;55.73145;957.7622;;;;
2019/04/02 03:24:07;;;;;;;33.2;24.3;;;;;;;10.37;56.13867;957.7997;;;;
2019/04/02 03:26:32;;;;;;;32.6;23.7;;;;;;;10.43;56.16895;957.8459;;;;
2019/04/02 03:28:57;;;;;;;30.9;23.4;;;;;;;10.45;56.64063;957.8497;;;;
2019/04/02 03:31:22;;;;;;;30.3;23.3;;;;;;;10.47;56.70215;957.8689;;;;
2019/04/02 03:33:48;;;;;;;31;23.6;;;;;;;10.46;56.62012;957.813;;;;
2019/04/02 03:36:13;;;;;;;32;24.1;;;;;;;10.44;56.40625;957.7522;;;;
2019/04/02 03:38:38;;;;;;;31.3;24.7;;;;;;;10.32;56.47168;957.7831;;;;
2019/04/02 03:41:03;;;;;;;35.5;25;;;;;;;10.23;56.87012;957.8166;;;;
2019/04/02 03:43:28;;;;;;;36.9;23.7;;;;;;;10.23;56.70605;957.6905;;;;
2019/04/02 03:45:53;;;;;;;34.3;23.7;;;;;;;10.31;56.50684;957.7587;;;;
2019/04/02 03:48:19;;;;;;;32.3;24;;;;;;;10.34;56.27539;957.7531;;;;
2019/04/02 03:50:44;;;;;;;34.5;23.6;;;;;;;10.33;56.45117;957.7584;;;;
2019/04/02 03:53:10;;;;;;;31.8;24.2;;;;;;;10.27;56.35938;957.7708;;;;
2019/04/02 03:55:35;;;;;;;31.8;23.6;;;;;;;10.27;56.27734;957.7968;;;;
2019/04/02 03:58:01;;;;;;;29.5;23.6;;;;;;;10.3;56.07129;957.704;;;;
2019/04/02 04:02:38;;;;;;;34.8;24.7;;;;;;;10.14;56.24902;957.6153;;;;
2019/04/02 04:05:03;;;;;;;31.4;23.1;;;;;;;10.11;56.31738;957.6027;;;;
2019/04/02 04:07:28;;;;;;;30.9;23.9;;;;;;;10.09;56.19531;957.5988;;;;
2019/04/02 04:09:53;;;;;;;35.9;24;;;;;;;10.07;56.08789;957.5588;;;;
2019/04/02 04:12:19;;;;;;;29.6;23.1;;;;;;;10.06;56.15723;957.5262;;;;
2019/04/02 04:14:44;;;;;;;31.9;24.4;;;;;;;9.97;56.25098;957.4892;;;;
2019/04/02 04:17:10;;;;;;;31.9;25;;;;;;;9.84;56.50293;957.3837;;;;
2019/04/02 04:19:35;;;;;;;34.2;24.2;;;;;;;9.86;56.53027;957.3315;;;;
2019/04/02 04:22:00;;;;;;;32.5;23.8;;;;;;;9.88;56.60254;957.4017;;;;
2019/04/02 04:24:25;;;;;;;33.7;23.7;;;;;;;9.86;56.62305;957.4654;;;;
2019/04/02 04:26:50;;;;;;;30.9;23.5;;;;;;;9.91;56.5127;957.4612;;;;
2019/04/02 04:29:15;;;;;;;31.1;24.5;;;;;;;9.83;56.88867;957.4839;;;;
2019/04/02 04:31:41;;;;;;;33.9;25.1;;;;;;;9.63;57.6582;957.5021;;;;
2019/04/02 04:34:06;;;;;;;32.9;25.3;;;;;;;9.5;58.07129;957.4745;;;;
2019/04/02 04:36:31;;;;;;;34.8;24.7;;;;;;;9.51;58.16699;957.4381;;;;
2019/04/02 04:38:56;;;;;;;37.9;24.6;;;;;;;9.54;58.15918;957.4756;;;;
2019/04/02 04:41:22;;;;;;;35.8;24.6;;;;;;;9.61;58.13379;957.5023;;;;
2019/04/02 04:43:47;;;;;;;33.3;24.2;;;;;;;9.62;58.14648;957.492;;;;
2019/04/02 04:46:13;;;;;;;33.4;24.1;;;;;;;9.65;58.05762;957.4813;;;;
2019/04/02 04:48:38;;;;;;;32.5;24.1;;;;;;;9.71;58.00684;957.4717;;;;
2019/04/02 04:51:04;;;;;;;34.5;25.3;;;;;;;9.64;58.13867;957.5176;;;;
2019/04/02 04:53:29;;;;;;;38.4;26.5;;;;;;;9.65;58.31348;957.4177;;;;
2019/04/02 04:55:54;;;;;;;31.8;24.3;;;;;;;9.65;58.0918;957.4177;;;;
2019/04/02 04:58:19;;;;;;;34;24.8;;;;;;;9.68;57.90918;957.5161;;;;
2019/04/02 05:00:44;;;;;;;30.9;23.9;;;;;;;9.68;58.00293;957.5408;;;;
2019/04/02 05:03:09;;;;;;;35.8;24.5;;;;;;;9.71;57.94824;957.4925;;;;
2019/04/02 05:05:34;;;;;;;32.3;24.3;;;;;;;9.74;57.76465;957.5185;;;;
2019/04/02 05:07:59;;;;;;;32.1;24.4;;;;;;;9.76;57.86035;957.5676;;;;
2019/04/02 05:10:24;;;;;;;36.6;24.4;;;;;;;9.77;57.88574;957.5391;;;;
2019/04/02 05:12:50;;;;;;;33.5;25.6;;;;;;;9.68;58.21289;957.598;;;;
2019/04/02 05:15:15;;;;;;;37.1;26.2;;;;;;;9.72;58.05469;957.5653;;;;
2019/04/02 05:17:40;;;;;;;34.3;25.6;;;;;;;9.72;58.11328;957.5393;;;;
2019/04/02 05:20:05;;;;;;;34.7;24.9;;;;;;;9.79;57.90039;957.5661;;;;
2019/04/02 05:22:31;;;;;;;32.5;25.4;;;;;;;9.84;57.71973;957.4487;;;;
2019/04/02 05:24:56;;;;;;;33.5;25.9;;;;;;;9.86;57.72363;957.4615;;;;
2019/04/02 05:27:21;;;;;;;34.4;25.3;;;;;;;9.92;57.50781;957.4821;;;;
2019/04/02 05:29:46;;;;;;;36;25.8;;;;;;;9.93;57.71973;957.4885;;;;
2019/04/02 05:32:11;;;;;;;38.5;26.4;;;;;;;9.87;57.86426;957.4641;;;;
2019/04/02 05:34:36;;;;;;;41.3;25.9;;;;;;;9.81;57.7627;957.4972;;;;
2019/04/02 05:37:01;;;;;;;38.7;25.4;;;;;;;9.56;57.89258;957.5247;;;;
2019/04/02 05:39:26;;;;;;;37.5;24.5;;;;;;;9.88;56.59082;957.4706;;;;
2019/04/02 05:41:51;;;;;;;33.3;24.2;;;;;;;9.9;56.58105;957.4976;;;;
2019/04/02 05:44:16;;;;;;;33.5;24;;;;;;;10.05;56.60059;957.5016;;;;
2019/04/02 05:46:42;;;;;;;36.5;24.4;;;;;;;10.06;56.27441;957.473;;;;
2019/04/02 05:49:07;;;;;;;37.7;24.7;;;;;;;9.9;55.98438;957.4327;;;;
2019/04/02 05:51:32;;;;;;;35;24.2;;;;;;;9.6;56.85645;957.4868;;;;
2019/04/02 05:53:57;;;;;;;33.6;23.1;;;;;;;9.43;57.25586;957.4607;;;;
2019/04/02 05:56:22;;;;;;;37.3;24.9;;;;;;;9.62;56.74316;957.4752;;;;
2019/04/02 05:58:47;;;;;;;34.7;23.1;;;;;;;9.51;57.43066;957.4161;;;;
2019/04/02 06:01:13;;;;;;;36.3;23.5;;;;;;;9.75;56.72559;957.4116;;;;
2019/04/02 06:03:38;;;;;;;30.2;22.8;;;;;;;9.82;55.78711;957.4163;;;;
2019/04/02 06:06:03;;;;;;;36.4;25.1;;;;;;;9.59;55.99121;957.44;;;;
2019/04/02 06:08:28;;;;;;;31.6;24.1;;;;;;;9.57;56.70117;957.4104;;;;
2019/04/02 06:10:53;;;;;;;32.5;23.6;;;;;;;9.8;57.23438;957.3477;;;;
2019/04/02 06:13:18;;;;;;;31.1;22.5;;;;;;;9.97;56.32129;957.2812;;;;
2019/04/02 06:15:44;;;;;;;32.4;23.3;;;;;;;10.19;54.87402;957.3253;;;;
2019/04/02 06:18:09;;;;;;;35.9;23.2;;;;;;;10.31;54.51465;957.3256;;;;
2019/04/02 06:20:34;;;;;;;36.9;23.5;;;;;;;10.59;53.99902;957.2392;;;;
2019/04/02 06:22:59;;;;;;;35.3;24.4;;;;;;;10.39;53.96289;957.2139;;;;
2019/04/02 06:25:24;;;;;;;32.7;23.5;;;;;;;10.65;53.19629;957.2595;;;;
2019/04/02 06:27:49;;;;;;;33.9;24.4;;;;;;;10.74;52.68164;957.2245;;;;
2019/04/02 06:30:14;;;;;;;36.9;25.4;;;;;;;10.79;52.55859;957.2241;;;;
2019/04/02 06:32:39;;;;;;;35.9;25.9;;;;;;;10.7;53.2627;957.2536;;;;
2019/04/02 06:35:04;;;;;;;34.4;25.3;;;;;;;10.77;53.50586;957.228;;;;
2019/04/02 06:37:30;;;;;;;37.8;26.8;;;;;;;10.72;53.75684;957.2626;;;;
2019/04/02 06:39:55;;;;;;;36.5;26.6;;;;;;;10.82;53.68848;957.2054;;;;
2019/04/02 06:42:20;;;;;;;37;26.5;;;;;;;11.05;53.98633;957.2117;;;;
2019/04/02 06:44:45;;;;;;;40.3;26.8;;;;;;;11.34;53.36426;957.2182;;;;
2019/04/02 06:47:10;;;;;;;43;30.7;;;;;;;11.23;53.54004;957.1599;;;;
2019/04/02 06:49:46;;;;;;;48.7;30.6;;;;;;;11.35;53.45996;957.1947;;;;
2019/04/02 06:52:00;;;;;;;42.6;30.4;;;;;;;11.37;53.63867;957.1865;;;;
2019/04/02 06:54:25;;;;;;;44.9;29.9;;;;;;;11.72;53.38867;957.1127;;;;
2019/04/02 06:56:50;;;;;;;45;30.6;;;;;;;11.88;53.04297;957.1089;;;;
2019/04/02 06:59:15;;;;;;;44.2;31.8;;;;;;;11.65;53.19141;957.0691;;;;
2019/04/02 07:01:41;;;;;;;44.3;32;;;;;;;11.6;53.58594;957.1948;;;;
2019/04/02 07:04:06;;;;;;;45.2;31.7;;;;;;;11.73;53.57715;957.1281;;;;
2019/04/02 07:06:31;;;;;;;47.4;30.8;;;;;;;12.14;53.4873;957.0027;;;;
2019/04/02 07:08:56;;;;;;;49.4;31.9;;;;;;;12.46;52.64355;957.0389;;;;
2019/04/02 07:11:21;;;;;;;46.9;32.2;;;;;;;12.67;51.52734;956.993;;;;
2019/04/02 07:13:46;;;;;;;46.4;33;;;;;;;12.89;51.54004;956.9913;;;;
2019/04/02 07:16:11;;;;;;;42.8;30.9;;;;;;;13.09;50.93945;956.9572;;;;
2019/04/02 07:18:37;;;;;;;43.8;32;;;;;;;13.33;50.66113;956.9498;;;;
2019/04/02 07:21:02;;;;;;;42.3;31.3;;;;;;;13.57;50.79395;956.96;;;;
2019/04/02 07:23:27;;;;;;;40;31;;;;;;;13.69;49.60547;956.9833;;;;
2019/04/02 07:25:52;;;;;;;44.5;31.7;;;;;;;13.88;49.5918;956.8937;;;;
2019/04/02 07:28:17;;;;;;;41.8;32.4;;;;;;;13.99;49.25;956.9551;;;;
2019/04/02 07:30:42;;;;;;;43.2;32.3;;;;;;;14.16;49.20996;956.9468;;;;
2019/04/02 07:33:07;;;;;;;43;33.9;;;;;;;14.15;48.98242;956.9723;;;;
2019/04/02 07:35:32;;;;;;;41.2;31.9;;;;;;;14.19;49.30762;956.9202;;;;
2019/04/02 07:37:57;;;;;;;42;32.1;;;;;;;14.31;49.23828;956.8998;;;;
2019/04/02 07:40:22;;;;;;;43.6;32.4;;;;;;;14.48;49.19824;956.8723;;;;
2019/04/02 07:42:48;;;;;;;40.8;31.5;;;;;;;14.6;48.50293;956.856;;;;
2019/04/02 07:45:13;;;;;;;43.7;32.6;;;;;;;14.47;49.03125;956.8477;;;;
2019/04/02 07:47:38;;;;;;;40.5;31.5;;;;;;;14.76;48.92188;956.8164;;;;
2019/04/02 07:50:03;;;;;;;44.3;33;;;;;;;14.83;48.62207;956.8326;;;;
2019/04/02 07:52:28;;;;;;;41.3;31.6;;;;;;;14.95;48.05566;956.8345;;;;
2019/04/02 07:54:53;;;;;;;40.8;31.8;;;;;;;15.33;47.39844;956.7787;;;;
2019/04/02 07:57:18;;;;;;;42.6;33.1;;;;;;;15.3;47.71484;956.8148;;;;
2019/04/02 07:59:44;;;;;;;41.2;32.6;;;;;;;15.46;47.38867;956.801;;;;
2019/04/02 08:02:09;;;;;;;44.4;32;;;;;;;15.64;47.4082;956.856;;;;
2019/04/02 08:04:34;;;;;;;42.1;32.7;;;;;;;15.77;47.01758;956.9177;;;;
2019/04/02 08:06:59;;;;;;;53.7;34.7;;;;;;;15.97;46.75586;956.9059;;;;
2019/04/02 08:09:24;;;;;;;45.9;33.6;;;;;;;16.04;46.9873;956.8447;;;;
2019/04/02 08:11:49;;;;;;;40.5;32.3;;;;;;;16.09;45.66504;956.8677;;;;
2019/04/02 08:14:14;;;;;;;40.7;31.8;;;;;;;16.28;45.69727;956.8547;;;;
2019/04/02 08:16:39;;;;;;;39.8;32.2;;;;;;;16.21;46.19922;956.9006;;;;
2019/04/02 08:19:05;;;;;;;39.1;31.9;;;;;;;15.97;46.36426;956.9507;;;;
2019/04/02 08:21:30;;;;;;;38.2;30;;;;;;;16.38;45.08887;956.9055;;;;
2019/04/02 08:23:55;;;;;;;42.3;32.6;;;;;;;16.31;45.1416;956.8448;;;;
2019/04/02 08:26:20;;;;;;;40.4;29.9;;;;;;;16.82;44.9209;956.8652;;;;
2019/04/02 08:28:45;;;;;;;38.3;30.9;;;;;;;16.63;44.46094;956.8839;;;;
2019/04/02 08:31:10;;;;;;;37.2;30.9;;;;;;;16.45;44.75098;956.8953;;;;
2019/04/02 08:33:35;;;;;;;36.2;29.6;;;;;;;16.77;43.61914;956.7842;;;;
2019/04/02 08:36:00;;;;;;;37.9;31.1;;;;;;;16.79;43.4668;956.7285;;;;
2019/04/02 08:38:26;;;;;;;37.9;30.3;;;;;;;16.6;44.31445;956.7681;;;;
2019/04/02 08:40:51;;;;;;;36.2;29.7;;;;;;;16.94;42.86328;956.7625;;;;
2019/04/02 08:43:16;;;;;;;38.7;29.6;;;;;;;17.1;42.02148;956.7028;;;;
2019/04/02 08:45:41;;;;;;;36.1;28.5;;;;;;;17.32;41.41309;956.743;;;;
2019/04/02 08:48:06;;;;;;;36.5;28.2;;;;;;;17.75;40.67773;956.7;;;;
2019/04/02 08:50:31;;;;;;;36.2;28;;;;;;;18.09;39.9707;956.6722;;;;
2019/04/02 08:52:56;;;;;;;34.1;28.7;;;;;;;18.37;38.85059;956.6511;;;;
2019/04/02 08:55:21;;;;;;;34.9;28.4;;;;;;;18.31;38.10547;956.572;;;;
2019/04/02 08:57:46;;;;;;;35.8;28.7;;;;;;;18.26;38.53125;956.5989;;;;
2019/04/02 09:00:13;;;;;;;35.1;27.5;;;;;;;18.55;38.23242;956.6569;;;;
2019/04/02 09:02:36;;;;;;;34.8;28.4;;;;;;;18.62;38.49023;956.5012;;;;
2019/04/02 09:05:02;;;;;;;35.8;27.5;;;;;;;18.8;37.95703;956.4692;;;;
2019/04/02 09:07:27;;;;;;;35.7;29.7;;;;;;;18.11;38.52832;956.6067;;;;
2019/04/02 09:09:52;;;;;;;38.2;30.7;;;;;;;18.11;39.14941;956.509;;;;
2019/04/02 09:12:17;;;;;;;39.5;30.4;;;;;;;18.21;38.44238;956.5101;;;;
2019/04/02 09:14:42;;;;;;;40.6;31.8;;;;;;;18.42;38.66309;956.5134;;;;
2019/04/02 09:17:07;;;;;;;40;32.3;;;;;;;18.45;39.09668;956.5408;;;;
2019/04/02 09:19:32;;;;;;;43.3;33.6;;;;;;;18.15;39.05762;956.4785;;;;
2019/04/02 09:21:58;;;;;;;40.4;31.3;;;;;;;18.73;38.20215;956.4536;;;;
2019/04/02 09:24:23;;;;;;;40.4;30.5;;;;;;;18.83;38.49707;956.4416;;;;
2019/04/02 09:26:48;;;;;;;38.9;30.4;;;;;;;19.05;38.16895;956.4501;;;;
2019/04/02 09:29:13;;;;;;;43.1;31.1;;;;;;;19.49;37.4541;956.4286;;;;
2019/04/02 09:31:38;;;;;;;38.1;30;;;;;;;19.5;36.79785;956.448;;;;
2019/04/02 09:34:03;;;;;;;38.5;29.4;;;;;;;19.68;36.16602;956.4775;;;;
2019/04/02 09:36:28;;;;;;;37.4;30.3;;;;;;;19.75;36.50684;956.3699;;;;
2019/04/02 09:38:53;;;;;;;38.2;31.3;;;;;;;19.62;36.54297;956.3738;;;;
2019/04/02 09:41:18;;;;;;;45;31.6;;;;;;;19.76;35.47754;956.372;;;;
2019/04/02 09:43:43;;;;;;;39.8;30.7;;;;;;;19.85;35.1377;956.3177;;;;
2019/04/02 09:46:09;;;;;;;38.3;30.9;;;;;;;19.89;34.30273;956.3434;;;;
2019/04/02 09:48:34;;;;;;;43.6;29.7;;;;;;;19.92;34.1377;956.3365;;;;
2019/04/02 09:50:59;;;;;;;38;27.1;;;;;;;20.32;34.5166;956.2296;;;;
2019/04/02 09:53:24;;;;;;;36.1;27.3;;;;;;;19.44;35.77539;956.2316;;;;
2019/04/02 09:55:49;;;;;;;36.9;25.6;;;;;;;20.01;34.54004;956.2106;;;;
2019/04/02 11:09:44;;;;;;;35;27.6;;;;;;;22.72;28.09961;954.9744;;;;
2019/04/02 11:12:09;;;;;;;39.8;23.1;;;;;;;22.76;27.51172;954.92;;;;
2019/04/02 11:14:35;;;;;;;33;21.4;;;;;;;22.92;27.83496;954.9314;;;;
2019/04/02 11:17:01;;;;;;;32.1;21.5;;;;;;;23.23;26.85352;954.9973;;;;
2019/04/02 11:19:26;;;;;;;31.9;20.8;;;;;;;23.4;26.71875;954.8987;;;;
2019/04/02 11:21:52;;;;;;;30.1;21.1;;;;;;;23.69;26.74902;954.8333;;;;
2019/04/02 11:24:17;;;;;;;33;21.8;;;;;;;23.49;25.84375;954.8105;;;;
2019/04/02 11:26:42;;;;;;;33.7;21.6;;;;;;;23.26;26.03418;954.7608;;;;
2019/04/02 11:29:08;;;;;;;28.4;20.4;;;;;;;23.3;26.58008;954.6947;;;;
2019/04/02 11:31:33;;;;;;;28.2;19.3;;;;;;;23.33;25.03711;954.7405;;;;
2019/04/02 11:33:58;;;;;;;34;19.4;;;;;;;23.09;24.85547;954.6944;;;;
2019/04/02 11:36:24;;;;;;;26.6;18.9;;;;;;;23.1;25.66309;954.6622;;;;
2019/04/02 11:38:49;;;;;;;29.9;19.5;;;;;;;23.31;25.45898;954.5978;;;;
2019/04/02 11:41:32;;;;;;;29;19.1;;;;;;;23.46;24.15234;954.5787;;;;
2019/04/02 11:43:57;;;;;;;31.9;19.1;;;;;;;23.12;25.01367;954.5028;;;;
2019/04/02 11:46:22;;;;;;;27.9;18.9;;;;;;;23.48;24.46582;954.4119;;;;
2019/04/02 11:48:49;;;;;;;28.3;18.3;;;;;;;23.69;24.46582;954.3737;;;;
2019/04/02 11:51:14;;;;;;;31.2;18;;;;;;;23.8;24.02539;954.3517;;;;
2019/04/02 11:53:39;;;;;;;28.2;18.4;;;;;;;23.35;24.27832;954.2794;;;;
2019/04/02 11:56:04;;;;;;;26.7;17.6;;;;;;;23.54;25.36328;954.2415;;;;
2019/04/02 11:58:29;;;;;;;25.5;17.7;;;;;;;23.62;24.86133;954.2042;;;;
2019/04/02 12:00:58;;;;;;;27.9;18.3;;;;;;;23.91;25.00977;954.1568;;;;
2019/04/02 12:03:20;;;;;;;25.2;16.8;;;;;;;24.16;23.34277;954.0467;;;;
2019/04/02 12:05:46;;;;;;;26.1;16.4;;;;;;;24.15;22.11035;953.9744;;;;
2019/04/02 12:08:11;;;;;;;22.2;14.9;;;;;;;24.03;21.52344;954.0303;;;;
2019/04/02 12:10:36;;;;;;;21.6;15.9;;;;;;;24.04;21.07715;953.9791;;;;
2019/04/02 12:13:01;;;;;;;23.5;15.3;;;;;;;23.87;22.18066;953.9135;;;;
2019/04/02 12:15:26;;;;;;;22.6;14.8;;;;;;;24.05;21.37988;953.8862;;;;
2019/04/02 12:17:51;;;;;;;22;14.3;;;;;;;24.15;20.30859;953.8928;;;;
2019/04/02 12:20:16;;;;;;;24.7;15.1;;;;;;;23.56;20.82422;953.8527;;;;
2019/04/02 12:22:42;;;;;;;22.5;14.2;;;;;;;23.57;20.24609;953.8792;;;;
2019/04/02 12:25:07;;;;;;;19.7;13.4;;;;;;;23.79;21.10156;953.729;;;;
2019/04/02 12:27:32;;;;;;;21.2;14.9;;;;;;;23.83;20.68066;953.6931;;;;
2019/04/02 12:29:57;;;;;;;21.8;14.6;;;;;;;23.79;20.76367;953.6853;;;;
2019/04/02 12:32:22;;;;;;;21.8;14.8;;;;;;;23.95;20.7832;953.6139;;;;
2019/04/02 12:34:47;;;;;;;24;15.3;;;;;;;24.14;20.51367;953.5942;;;;
2019/04/02 12:37:13;;;;;;;20;14.3;;;;;;;23.69;20.31152;953.599;;;;
2019/04/02 12:39:38;;;;;;;21.5;14.3;;;;;;;23.8;20.82422;953.5237;;;;
2019/04/02 12:42:03;;;;;;;20.7;12.7;;;;;;;23.9;20.18848;953.5683;;;;
2019/04/02 12:44:28;;;;;;;19.2;12;;;;;;;24.02;19.38379;953.4641;;;;
2019/04/02 12:46:53;;;;;;;19.8;12.3;;;;;;;24.14;19.20801;953.4137;;;;
2019/04/02 12:49:19;;;;;;;17.2;11.4;;;;;;;23.67;18.74121;953.4073;;;;
2019/04/02 12:51:45;;;;;;;19.9;12;;;;;;;23.84;19.20703;953.4727;;;;
2019/04/02 12:54:10;;;;;;;20.8;12.2;;;;;;;23.77;18.76953;953.3926;;;;
2019/04/02 12:56:35;;;;;;;18.4;12.3;;;;;;;23.84;18.83301;953.4024;;;;
2019/04/02 12:59:00;;;;;;;16.8;11.7;;;;;;;23.72;19.39453;953.3124;;;;
2019/04/02 13:01:25;;;;;;;18;11.6;;;;;;;23.65;17.97949;953.2305;;;;
2019/04/02 13:03:50;;;;;;;17;11.3;;;;;;;23.65;18.22168;953.2703;;;;
2019/04/02 13:06:15;;;;;;;14.9;10.5;;;;;;;23.8;18.46875;953.2389;;;;
2019/04/02 13:08:41;;;;;;;13.8;10.7;;;;;;;23.52;18.05859;953.188;;;;
2019/04/02 13:11:06;;;;;;;16.2;10.5;;;;;;;23.49;18.76953;953.1025;;;;
2019/04/02 13:13:31;;;;;;;15.5;10.6;;;;;;;23.48;19.02246;953.1214;;;;
2019/04/02 13:15:56;;;;;;;15.6;10.1;;;;;;;23.42;18.82715;953.0391;;;;
2019/04/02 13:18:21;;;;;;;17.4;10.4;;;;;;;23.33;19.13672;953.0706;;;;
2019/04/02 13:20:46;;;;;;;16.9;10.6;;;;;;;23.42;18.74219;952.9727;;;;
2019/04/02 13:23:12;;;;;;;15.6;10.7;;;;;;;23.21;19.20508;953.0185;;;;
2019/04/02 13:25:37;;;;;;;15.5;10.3;;;;;;;23.24;18.8916;953.051;;;;
2019/04/02 13:28:02;;;;;;;18.1;10.2;;;;;;;23.44;18.69531;952.9026;;;;
2019/04/02 13:30:28;;;;;;;15.7;11;;;;;;;23.65;19.01758;952.824;;;;
2019/04/02 13:32:53;;;;;;;17.4;10.4;;;;;;;23.62;18.72656;952.8392;;;;
2019/04/02 13:35:18;;;;;;;15.5;10.1;;;;;;;23.71;18.64648;952.8038;;;;
2019/04/02 13:37:44;;;;;;;15;10.2;;;;;;;23.31;19.19629;952.7876;;;;
2019/04/02 13:40:09;;;;;;;17.3;10;;;;;;;23.39;19.8877;952.7198;;;;
2019/04/02 13:42:34;;;;;;;15.1;10.4;;;;;;;23.38;18.63184;952.7481;;;;
2019/04/02 13:44:59;;;;;;;18.6;11.5;;;;;;;23.11;19.2002;952.7197;;;;
2019/04/02 13:47:24;;;;;;;15.1;10.1;;;;;;;22.81;18.13867;952.7704;;;;
2019/04/02 13:49:49;;;;;;;14.2;9.2;;;;;;;22.91;18.52832;952.6539;;;;
2019/04/02 13:52:14;;;;;;;17.4;9.4;;;;;;;22.71;19.02539;952.7164;;;;
2019/04/02 13:54:39;;;;;;;13.4;9.4;;;;;;;22.67;18.62695;952.6799;;;;
2019/04/02 13:57:04;;;;;;;13.6;9.6;;;;;;;22.9;18.40723;952.6044;;;;
2019/04/02 13:59:30;;;;;;;14;9.1;;;;;;;22.51;18.45117;952.6008;;;;
2019/04/02 14:01:55;;;;;;;17;9.2;;;;;;;22.61;18.33496;952.6074;;;;
2019/04/02 14:04:20;;;;;;;14;9.7;;;;;;;22.37;18.81836;952.6124;;;;
2019/04/02 14:06:45;;;;;;;13.2;9.6;;;;;;;22.37;18.95117;952.5709;;;;
2019/04/02 14:09:10;;;;;;;15.2;9.6;;;;;;;22.63;18.67285;952.4861;;;;
2019/04/02 14:11:35;;;;;;;13;9.5;;;;;;;22.75;19.25684;952.4628;;;;
2019/04/02 14:14:00;;;;;;;14.6;9.7;;;;;;;22.84;18.68164;952.405;;;;
2019/04/02 14:16:25;;;;;;;17;10;;;;;;;23.05;19.35449;952.323;;;;
2019/04/02 14:18:51;;;;;;;14.3;9.7;;;;;;;23.26;18.82031;952.353;;;;
2019/04/02 14:21:16;;;;;;;14.4;9.4;;;;;;;23.46;19.0459;952.3162;;;;
2019/04/02 14:23:41;;;;;;;12.9;10;;;;;;;23.44;18.71973;952.3164;;;;
2019/04/02 14:26:06;;;;;;;15.3;10.1;;;;;;;23.14;18.7793;952.2667;;;;
2019/04/02 14:28:32;;;;;;;14.6;9.9;;;;;;;23.3;19.47363;952.2486;;;;
2019/04/02 14:30:57;;;;;;;13.5;9.8;;;;;;;23.29;19.19531;952.2392;;;;
2019/04/02 14:33:22;;;;;;;14.3;9.5;;;;;;;23.23;18.95117;952.1912;;;;
2019/04/02 14:35:48;;;;;;;13.4;9.2;;;;;;;23.26;19.59277;952.0454;;;;
2019/04/02 14:38:13;;;;;;;15.2;9.4;;;;;;;23.08;19.58398;952.1031;;;;
2019/04/02 14:40:38;;;;;;;12.4;8.7;;;;;;;23.07;18.53516;952.0444;;;;
2019/04/02 14:43:03;;;;;;;12.5;9.1;;;;;;;22.97;18.62695;952.0378;;;;
2019/04/02 14:45:28;;;;;;;14.1;8.7;;;;;;;23.01;19.87109;952.0021;;;;
2019/04/02 14:47:54;;;;;;;13;8.8;;;;;;;23.1;19.1875;952.0161;;;;
2019/04/02 14:50:19;;;;;;;13.7;8.8;;;;;;;23.23;19.29004;951.9864;;;;
2019/04/02 14:52:45;;;;;;;12.3;9;;;;;;;23.11;18.43945;951.9384;;;;
2019/04/02 14:55:10;;;;;;;14;9.1;;;;;;;23.13;19.21289;951.8702;;;;
2019/04/02 14:57:35;;;;;;;12.7;9.8;;;;;;;23.16;19.06934;951.8418;;;;
2019/04/02 15:00:00;;;;;;;14.7;9.3;;;;;;;23.34;19.125;951.7916;;;;
2019/04/02 15:02:25;;;;;;;14.9;9.5;;;;;;;23.3;18.80957;951.7439;;;;
2019/04/02 15:04:50;;;;;;;12.8;9.2;;;;;;;23.16;18.80371;951.7394;;;;